sensor_id;sensor_type;location;lat;lon;timestamp;P1;durP1;ratioP1;P2;durP2;ratioP2
5163;SDS011;2601;50.224;10.126;2023-06-14T00:00:11;150.43;;;11.73;;
5163;SDS011;2601;50.224;10.126;2023-06-14T00:02:38;150.90;;;13.13;;
5163;SDS011;2601;50.224;10.126;2023-06-14T00:05:07;151.77;;;12.30;;
5163;SDS011;2601;50.224;10.126;2023-06-14T00:07:39;151.57;;;12.43;;
5163;SDS011;2601;50.224;10.126;2023-06-14T00:10:09;152.03;;;12.53;;
5163;SDS011;2601;50.224;10.126;2023-06-14T00:12:36;150.83;;;12.03;;
5163;SDS011;2601;50.224;10.126;2023-06-14T00:15:04;149.53;;;11.77;;
5163;SDS011;2601;50.224;10.126;2023-06-14T00:17:30;151.47;;;12.10;;
5163;SDS011;2601;50.224;10.126;2023-06-14T00:19:56;153.30;;;12.80;;
5163;SDS011;2601;50.224;10.126;2023-06-14T00:22:23;152.57;;;12.60;;
5163;SDS011;2601;50.224;10.126;2023-06-14T00:24:53;149.77;;;12.17;;
5163;SDS011;2601;50.224;10.126;2023-06-14T00:27:19;152.10;;;12.30;;
5163;SDS011;2601;50.224;10.126;2023-06-14T00:29:45;150.97;;;12.50;;
5163;SDS011;2601;50.224;10.126;2023-06-14T00:32:10;150.30;;;11.67;;
5163;SDS011;2601;50.224;10.126;2023-06-14T00:34:36;151.83;;;11.93;;
5163;SDS011;2601;50.224;10.126;2023-06-14T00:37:01;151.30;;;12.53;;
5163;SDS011;2601;50.224;10.126;2023-06-14T00:39:27;149.97;;;12.10;;
5163;SDS011;2601;50.224;10.126;2023-06-14T00:41:52;152.53;;;12.77;;
5163;SDS011;2601;50.224;10.126;2023-06-14T00:44:18;151.03;;;12.13;;
5163;SDS011;2601;50.224;10.126;2023-06-14T00:46:45;153.03;;;12.87;;
5163;SDS011;2601;50.224;10.126;2023-06-14T00:49:11;149.90;;;11.90;;
5163;SDS011;2601;50.224;10.126;2023-06-14T00:51:40;150.47;;;12.77;;
5163;SDS011;2601;50.224;10.126;2023-06-14T00:54:06;151.27;;;12.70;;
5163;SDS011;2601;50.224;10.126;2023-06-14T00:56:32;150.93;;;12.80;;
5163;SDS011;2601;50.224;10.126;2023-06-14T00:58:57;150.27;;;13.00;;
5163;SDS011;2601;50.224;10.126;2023-06-14T01:01:23;159.43;;;11.97;;
5163;SDS011;2601;50.224;10.126;2023-06-14T01:03:49;151.30;;;12.10;;
5163;SDS011;2601;50.224;10.126;2023-06-14T01:08:57;151.10;;;13.43;;
5163;SDS011;2601;50.224;10.126;2023-06-14T01:11:50;152.33;;;12.83;;
5163;SDS011;2601;50.224;10.126;2023-06-14T01:14:24;150.17;;;12.30;;
5163;SDS011;2601;50.224;10.126;2023-06-14T01:16:52;150.70;;;12.20;;
5163;SDS011;2601;50.224;10.126;2023-06-14T01:19:18;151.77;;;12.40;;
5163;SDS011;2601;50.224;10.126;2023-06-14T01:21:47;149.10;;;12.27;;
5163;SDS011;2601;50.224;10.126;2023-06-14T01:24:16;151.40;;;12.13;;
5163;SDS011;2601;50.224;10.126;2023-06-14T01:26:44;151.40;;;13.00;;
5163;SDS011;2601;50.224;10.126;2023-06-14T01:29:16;150.33;;;11.47;;
5163;SDS011;2601;50.224;10.126;2023-06-14T01:31:42;152.30;;;12.40;;
5163;SDS011;2601;50.224;10.126;2023-06-14T01:34:08;151.77;;;12.87;;
5163;SDS011;2601;50.224;10.126;2023-06-14T01:36:35;154.43;;;12.60;;
5163;SDS011;2601;50.224;10.126;2023-06-14T01:39:05;151.37;;;12.40;;
5163;SDS011;2601;50.224;10.126;2023-06-14T01:41:31;153.13;;;13.23;;
5163;SDS011;2601;50.224;10.126;2023-06-14T01:43:59;153.77;;;13.20;;
5163;SDS011;2601;50.224;10.126;2023-06-14T01:46:26;151.93;;;12.43;;
5163;SDS011;2601;50.224;10.126;2023-06-14T01:48:51;151.87;;;12.80;;
5163;SDS011;2601;50.224;10.126;2023-06-14T01:51:17;155.40;;;13.43;;
5163;SDS011;2601;50.224;10.126;2023-06-14T01:53:42;152.97;;;13.13;;
5163;SDS011;2601;50.224;10.126;2023-06-14T01:56:08;150.97;;;12.83;;
5163;SDS011;2601;50.224;10.126;2023-06-14T01:58:34;150.17;;;12.80;;
5163;SDS011;2601;50.224;10.126;2023-06-14T02:01:00;154.00;;;13.67;;
5163;SDS011;2601;50.224;10.126;2023-06-14T02:03:26;155.87;;;13.33;;
5163;SDS011;2601;50.224;10.126;2023-06-14T02:05:52;149.40;;;12.63;;
5163;SDS011;2601;50.224;10.126;2023-06-14T02:08:19;150.60;;;12.17;;
5163;SDS011;2601;50.224;10.126;2023-06-14T02:10:44;150.90;;;12.70;;
5163;SDS011;2601;50.224;10.126;2023-06-14T02:13:10;152.47;;;12.93;;
5163;SDS011;2601;50.224;10.126;2023-06-14T02:15:36;150.67;;;12.67;;
5163;SDS011;2601;50.224;10.126;2023-06-14T02:18:02;150.27;;;13.10;;
5163;SDS011;2601;50.224;10.126;2023-06-14T02:20:28;151.37;;;13.20;;
5163;SDS011;2601;50.224;10.126;2023-06-14T02:22:54;158.47;;;13.90;;
5163;SDS011;2601;50.224;10.126;2023-06-14T02:25:20;153.90;;;13.73;;
5163;SDS011;2601;50.224;10.126;2023-06-14T02:27:45;162.70;;;13.23;;
5163;SDS011;2601;50.224;10.126;2023-06-14T02:30:11;154.50;;;12.30;;
5163;SDS011;2601;50.224;10.126;2023-06-14T02:32:37;152.77;;;13.60;;
5163;SDS011;2601;50.224;10.126;2023-06-14T02:35:03;151.17;;;13.07;;
5163;SDS011;2601;50.224;10.126;2023-06-14T02:37:29;149.87;;;12.60;;
5163;SDS011;2601;50.224;10.126;2023-06-14T02:39:55;154.43;;;13.50;;
5163;SDS011;2601;50.224;10.126;2023-06-14T02:42:21;151.43;;;12.27;;
5163;SDS011;2601;50.224;10.126;2023-06-14T02:44:47;151.40;;;12.47;;
5163;SDS011;2601;50.224;10.126;2023-06-14T02:47:16;160.17;;;12.67;;
5163;SDS011;2601;50.224;10.126;2023-06-14T02:49:42;155.07;;;13.30;;
5163;SDS011;2601;50.224;10.126;2023-06-14T02:52:08;150.07;;;12.50;;
5163;SDS011;2601;50.224;10.126;2023-06-14T02:54:34;151.90;;;13.00;;
5163;SDS011;2601;50.224;10.126;2023-06-14T02:56:59;151.00;;;13.03;;
5163;SDS011;2601;50.224;10.126;2023-06-14T02:59:25;151.10;;;12.93;;
5163;SDS011;2601;50.224;10.126;2023-06-14T03:01:51;151.77;;;13.07;;
5163;SDS011;2601;50.224;10.126;2023-06-14T03:04:17;149.70;;;11.97;;
5163;SDS011;2601;50.224;10.126;2023-06-14T03:06:42;150.73;;;12.03;;
5163;SDS011;2601;50.224;10.126;2023-06-14T03:09:09;151.60;;;12.80;;
5163;SDS011;2601;50.224;10.126;2023-06-14T03:11:34;150.60;;;12.40;;
5163;SDS011;2601;50.224;10.126;2023-06-14T03:14:00;153.53;;;12.40;;
5163;SDS011;2601;50.224;10.126;2023-06-14T03:16:28;151.40;;;12.33;;
5163;SDS011;2601;50.224;10.126;2023-06-14T03:18:55;151.73;;;12.90;;
5163;SDS011;2601;50.224;10.126;2023-06-14T03:21:20;157.37;;;12.57;;
5163;SDS011;2601;50.224;10.126;2023-06-14T03:23:47;150.83;;;13.10;;
5163;SDS011;2601;50.224;10.126;2023-06-14T03:26:13;152.00;;;12.80;;
5163;SDS011;2601;50.224;10.126;2023-06-14T03:28:40;152.63;;;13.43;;
5163;SDS011;2601;50.224;10.126;2023-06-14T03:31:06;154.77;;;12.10;;
5163;SDS011;2601;50.224;10.126;2023-06-14T03:33:33;152.20;;;12.87;;
5163;SDS011;2601;50.224;10.126;2023-06-14T03:35:59;153.00;;;13.23;;
5163;SDS011;2601;50.224;10.126;2023-06-14T03:38:25;148.47;;;11.73;;
5163;SDS011;2601;50.224;10.126;2023-06-14T03:40:50;150.70;;;12.10;;
5163;SDS011;2601;50.224;10.126;2023-06-14T03:43:16;150.93;;;13.33;;
5163;SDS011;2601;50.224;10.126;2023-06-14T03:45:41;153.10;;;13.20;;
5163;SDS011;2601;50.224;10.126;2023-06-14T03:48:08;150.40;;;12.50;;
5163;SDS011;2601;50.224;10.126;2023-06-14T03:50:34;156.20;;;12.33;;
5163;SDS011;2601;50.224;10.126;2023-06-14T03:53:03;154.90;;;12.40;;
5163;SDS011;2601;50.224;10.126;2023-06-14T03:55:31;152.27;;;13.30;;
5163;SDS011;2601;50.224;10.126;2023-06-14T03:57:58;153.00;;;12.77;;
5163;SDS011;2601;50.224;10.126;2023-06-14T04:00:24;157.40;;;12.83;;
5163;SDS011;2601;50.224;10.126;2023-06-14T04:02:50;152.03;;;13.30;;
5163;SDS011;2601;50.224;10.126;2023-06-14T04:05:15;151.40;;;13.00;;
5163;SDS011;2601;50.224;10.126;2023-06-14T04:07:44;150.43;;;12.50;;
5163;SDS011;2601;50.224;10.126;2023-06-14T04:10:10;154.57;;;12.80;;
5163;SDS011;2601;50.224;10.126;2023-06-14T04:12:40;152.27;;;11.90;;
5163;SDS011;2601;50.224;10.126;2023-06-14T04:15:05;149.60;;;12.87;;
5163;SDS011;2601;50.224;10.126;2023-06-14T04:17:33;151.47;;;13.13;;
5163;SDS011;2601;50.224;10.126;2023-06-14T04:19:59;160.63;;;13.53;;
5163;SDS011;2601;50.224;10.126;2023-06-14T04:22:25;150.07;;;12.10;;
5163;SDS011;2601;50.224;10.126;2023-06-14T04:24:54;152.37;;;12.70;;
5163;SDS011;2601;50.224;10.126;2023-06-14T04:27:21;151.23;;;12.37;;
5163;SDS011;2601;50.224;10.126;2023-06-14T04:29:51;151.40;;;13.23;;
5163;SDS011;2601;50.224;10.126;2023-06-14T04:32:27;154.03;;;12.90;;
5163;SDS011;2601;50.224;10.126;2023-06-14T04:35:05;150.50;;;12.97;;
5163;SDS011;2601;50.224;10.126;2023-06-14T04:37:32;149.37;;;12.33;;
5163;SDS011;2601;50.224;10.126;2023-06-14T04:39:58;151.90;;;13.50;;
5163;SDS011;2601;50.224;10.126;2023-06-14T04:42:23;152.37;;;12.40;;
5163;SDS011;2601;50.224;10.126;2023-06-14T04:44:56;150.07;;;12.77;;
5163;SDS011;2601;50.224;10.126;2023-06-14T04:47:22;151.70;;;12.47;;
5163;SDS011;2601;50.224;10.126;2023-06-14T04:49:54;149.20;;;12.00;;
5163;SDS011;2601;50.224;10.126;2023-06-14T04:52:20;152.97;;;12.77;;
5163;SDS011;2601;50.224;10.126;2023-06-14T04:54:46;152.17;;;11.80;;
5163;SDS011;2601;50.224;10.126;2023-06-14T04:57:12;152.50;;;12.70;;
5163;SDS011;2601;50.224;10.126;2023-06-14T04:59:45;151.80;;;11.57;;
5163;SDS011;2601;50.224;10.126;2023-06-14T05:02:10;151.07;;;12.43;;
5163;SDS011;2601;50.224;10.126;2023-06-14T05:04:36;153.30;;;12.63;;
5163;SDS011;2601;50.224;10.126;2023-06-14T05:07:05;152.23;;;12.57;;
5163;SDS011;2601;50.224;10.126;2023-06-14T05:09:34;154.60;;;12.30;;
5163;SDS011;2601;50.224;10.126;2023-06-14T05:12:01;150.20;;;12.07;;
5163;SDS011;2601;50.224;10.126;2023-06-14T05:14:26;151.50;;;12.33;;
5163;SDS011;2601;50.224;10.126;2023-06-14T05:16:52;150.30;;;11.50;;
5163;SDS011;2601;50.224;10.126;2023-06-14T05:19:18;152.07;;;12.53;;
5163;SDS011;2601;50.224;10.126;2023-06-14T05:21:45;150.93;;;12.63;;
5163;SDS011;2601;50.224;10.126;2023-06-14T05:24:12;150.33;;;12.30;;
5163;SDS011;2601;50.224;10.126;2023-06-14T05:26:38;149.90;;;11.77;;
5163;SDS011;2601;50.224;10.126;2023-06-14T05:29:04;150.00;;;11.97;;
5163;SDS011;2601;50.224;10.126;2023-06-14T05:31:30;149.17;;;12.43;;
5163;SDS011;2601;50.224;10.126;2023-06-14T05:33:56;150.60;;;12.40;;
5163;SDS011;2601;50.224;10.126;2023-06-14T05:36:22;151.27;;;12.10;;
5163;SDS011;2601;50.224;10.126;2023-06-14T05:38:47;150.97;;;12.03;;
5163;SDS011;2601;50.224;10.126;2023-06-14T05:41:13;152.90;;;12.90;;
5163;SDS011;2601;50.224;10.126;2023-06-14T05:43:39;152.33;;;12.60;;
5163;SDS011;2601;50.224;10.126;2023-06-14T05:46:04;152.20;;;13.03;;
5163;SDS011;2601;50.224;10.126;2023-06-14T05:48:30;150.10;;;12.27;;
5163;SDS011;2601;50.224;10.126;2023-06-14T05:50:56;150.03;;;12.27;;
5163;SDS011;2601;50.224;10.126;2023-06-14T05:53:22;151.77;;;13.50;;
5163;SDS011;2601;50.224;10.126;2023-06-14T05:55:49;156.30;;;12.17;;
5163;SDS011;2601;50.224;10.126;2023-06-14T05:58:16;152.37;;;13.50;;
5163;SDS011;2601;50.224;10.126;2023-06-14T06:00:42;153.27;;;12.00;;
5163;SDS011;2601;50.224;10.126;2023-06-14T06:03:07;150.87;;;11.60;;
5163;SDS011;2601;50.224;10.126;2023-06-14T06:05:34;150.53;;;12.80;;
5163;SDS011;2601;50.224;10.126;2023-06-14T06:07:59;152.80;;;12.60;;
5163;SDS011;2601;50.224;10.126;2023-06-14T06:10:25;150.93;;;13.23;;
5163;SDS011;2601;50.224;10.126;2023-06-14T06:12:51;149.43;;;11.87;;
5163;SDS011;2601;50.224;10.126;2023-06-14T06:15:17;149.87;;;11.80;;
5163;SDS011;2601;50.224;10.126;2023-06-14T06:17:43;153.80;;;13.53;;
5163;SDS011;2601;50.224;10.126;2023-06-14T06:20:09;155.50;;;14.00;;
5163;SDS011;2601;50.224;10.126;2023-06-14T06:22:36;149.47;;;12.30;;
5163;SDS011;2601;50.224;10.126;2023-06-14T06:25:02;149.97;;;11.73;;
5163;SDS011;2601;50.224;10.126;2023-06-14T06:27:28;149.77;;;13.63;;
5163;SDS011;2601;50.224;10.126;2023-06-14T06:29:53;155.37;;;13.40;;
5163;SDS011;2601;50.224;10.126;2023-06-14T06:32:19;152.80;;;12.90;;
5163;SDS011;2601;50.224;10.126;2023-06-14T06:34:44;149.93;;;12.03;;
5163;SDS011;2601;50.224;10.126;2023-06-14T06:37:10;151.57;;;11.67;;
5163;SDS011;2601;50.224;10.126;2023-06-14T06:39:36;150.43;;;12.77;;
5163;SDS011;2601;50.224;10.126;2023-06-14T06:42:01;150.37;;;12.63;;
5163;SDS011;2601;50.224;10.126;2023-06-14T06:44:27;153.87;;;12.03;;
5163;SDS011;2601;50.224;10.126;2023-06-14T06:46:52;151.17;;;11.90;;
5163;SDS011;2601;50.224;10.126;2023-06-14T06:49:18;150.87;;;13.20;;
5163;SDS011;2601;50.224;10.126;2023-06-14T06:51:52;149.43;;;12.50;;
5163;SDS011;2601;50.224;10.126;2023-06-14T06:54:25;149.10;;;11.97;;
5163;SDS011;2601;50.224;10.126;2023-06-14T06:56:50;149.40;;;11.13;;
5163;SDS011;2601;50.224;10.126;2023-06-14T06:59:16;149.93;;;11.90;;
5163;SDS011;2601;50.224;10.126;2023-06-14T07:01:41;149.47;;;12.93;;
5163;SDS011;2601;50.224;10.126;2023-06-14T07:04:07;152.03;;;13.10;;
5163;SDS011;2601;50.224;10.126;2023-06-14T07:06:33;150.07;;;13.00;;
5163;SDS011;2601;50.224;10.126;2023-06-14T07:08:58;149.67;;;12.23;;
5163;SDS011;2601;50.224;10.126;2023-06-14T07:11:26;149.37;;;10.87;;
5163;SDS011;2601;50.224;10.126;2023-06-14T07:13:52;150.60;;;12.00;;
5163;SDS011;2601;50.224;10.126;2023-06-14T07:16:18;153.17;;;13.00;;
5163;SDS011;2601;50.224;10.126;2023-06-14T07:18:43;149.87;;;10.60;;
5163;SDS011;2601;50.224;10.126;2023-06-14T07:21:09;148.70;;;11.40;;
5163;SDS011;2601;50.224;10.126;2023-06-14T07:23:35;150.70;;;11.60;;
5163;SDS011;2601;50.224;10.126;2023-06-14T07:26:00;155.03;;;11.57;;
5163;SDS011;2601;50.224;10.126;2023-06-14T07:28:26;148.67;;;10.70;;
5163;SDS011;2601;50.224;10.126;2023-06-14T07:30:51;149.27;;;12.30;;
5163;SDS011;2601;50.224;10.126;2023-06-14T07:33:17;150.30;;;11.30;;
5163;SDS011;2601;50.224;10.126;2023-06-14T07:35:42;149.50;;;10.80;;
5163;SDS011;2601;50.224;10.126;2023-06-14T07:38:08;148.67;;;11.00;;
5163;SDS011;2601;50.224;10.126;2023-06-14T07:40:33;147.17;;;10.63;;
5163;SDS011;2601;50.224;10.126;2023-06-14T07:42:59;148.47;;;11.30;;
5163;SDS011;2601;50.224;10.126;2023-06-14T07:45:26;148.97;;;10.97;;
5163;SDS011;2601;50.224;10.126;2023-06-14T07:47:52;147.10;;;10.50;;
5163;SDS011;2601;50.224;10.126;2023-06-14T07:50:17;147.87;;;10.53;;
5163;SDS011;2601;50.224;10.126;2023-06-14T07:52:43;149.93;;;11.30;;
5163;SDS011;2601;50.224;10.126;2023-06-14T07:55:10;147.77;;;10.27;;
5163;SDS011;2601;50.224;10.126;2023-06-14T07:57:35;148.00;;;10.87;;
5163;SDS011;2601;50.224;10.126;2023-06-14T08:00:01;148.83;;;10.80;;
5163;SDS011;2601;50.224;10.126;2023-06-14T08:02:31;150.80;;;12.30;;
5163;SDS011;2601;50.224;10.126;2023-06-14T08:04:56;148.67;;;11.30;;
5163;SDS011;2601;50.224;10.126;2023-06-14T08:07:22;148.43;;;10.80;;
5163;SDS011;2601;50.224;10.126;2023-06-14T08:09:48;148.17;;;11.60;;
5163;SDS011;2601;50.224;10.126;2023-06-14T08:12:13;147.47;;;10.70;;
5163;SDS011;2601;50.224;10.126;2023-06-14T08:14:39;148.47;;;11.40;;
5163;SDS011;2601;50.224;10.126;2023-06-14T08:17:17;149.00;;;12.10;;
5163;SDS011;2601;50.224;10.126;2023-06-14T08:19:43;149.37;;;11.10;;
5163;SDS011;2601;50.224;10.126;2023-06-14T08:22:08;148.73;;;11.23;;
5163;SDS011;2601;50.224;10.126;2023-06-14T08:24:36;150.27;;;10.10;;
5163;SDS011;2601;50.224;10.126;2023-06-14T08:27:02;152.70;;;11.70;;
5163;SDS011;2601;50.224;10.126;2023-06-14T08:29:27;148.67;;;11.10;;
5163;SDS011;2601;50.224;10.126;2023-06-14T08:31:56;151.70;;;10.97;;
5163;SDS011;2601;50.224;10.126;2023-06-14T08:34:22;147.93;;;10.90;;
5163;SDS011;2601;50.224;10.126;2023-06-14T08:36:49;148.57;;;11.20;;
5163;SDS011;2601;50.224;10.126;2023-06-14T08:39:15;148.00;;;11.30;;
5163;SDS011;2601;50.224;10.126;2023-06-14T08:41:41;149.33;;;10.70;;
5163;SDS011;2601;50.224;10.126;2023-06-14T08:44:10;148.57;;;10.63;;
5163;SDS011;2601;50.224;10.126;2023-06-14T08:46:36;148.20;;;10.80;;
5163;SDS011;2601;50.224;10.126;2023-06-14T08:49:02;147.63;;;10.90;;
5163;SDS011;2601;50.224;10.126;2023-06-14T08:51:31;148.70;;;10.70;;
5163;SDS011;2601;50.224;10.126;2023-06-14T08:54:01;149.07;;;10.80;;
5163;SDS011;2601;50.224;10.126;2023-06-14T08:56:29;148.40;;;10.97;;
5163;SDS011;2601;50.224;10.126;2023-06-14T08:58:56;148.80;;;11.67;;
5163;SDS011;2601;50.224;10.126;2023-06-14T09:01:26;149.77;;;11.40;;
5163;SDS011;2601;50.224;10.126;2023-06-14T09:03:51;154.23;;;10.43;;
5163;SDS011;2601;50.224;10.126;2023-06-14T09:06:20;149.77;;;12.47;;
5163;SDS011;2601;50.224;10.126;2023-06-14T09:08:48;148.57;;;11.20;;
5163;SDS011;2601;50.224;10.126;2023-06-14T09:11:14;148.50;;;10.90;;
5163;SDS011;2601;50.224;10.126;2023-06-14T09:13:41;150.07;;;10.80;;
5163;SDS011;2601;50.224;10.126;2023-06-14T09:16:07;147.87;;;10.73;;
5163;SDS011;2601;50.224;10.126;2023-06-14T09:18:34;150.80;;;11.67;;
5163;SDS011;2601;50.224;10.126;2023-06-14T09:21:06;148.60;;;11.07;;
5163;SDS011;2601;50.224;10.126;2023-06-14T09:23:42;149.33;;;11.10;;
5163;SDS011;2601;50.224;10.126;2023-06-14T09:26:09;148.83;;;10.60;;
5163;SDS011;2601;50.224;10.126;2023-06-14T09:31:18;148.77;;;10.43;;
5163;SDS011;2601;50.224;10.126;2023-06-14T09:33:45;150.60;;;12.17;;
5163;SDS011;2601;50.224;10.126;2023-06-14T09:36:15;148.67;;;10.83;;
5163;SDS011;2601;50.224;10.126;2023-06-14T09:38:52;147.00;;;10.33;;
5163;SDS011;2601;50.224;10.126;2023-06-14T09:41:19;153.40;;;10.97;;
5163;SDS011;2601;50.224;10.126;2023-06-14T09:43:45;148.10;;;10.90;;
5163;SDS011;2601;50.224;10.126;2023-06-14T09:46:12;148.83;;;11.17;;
5163;SDS011;2601;50.224;10.126;2023-06-14T09:48:38;148.30;;;10.57;;
5163;SDS011;2601;50.224;10.126;2023-06-14T09:51:07;147.10;;;10.20;;
5163;SDS011;2601;50.224;10.126;2023-06-14T09:53:35;148.60;;;11.30;;
5163;SDS011;2601;50.224;10.126;2023-06-14T09:56:02;149.50;;;10.77;;
5163;SDS011;2601;50.224;10.126;2023-06-14T09:58:29;146.50;;;10.13;;
5163;SDS011;2601;50.224;10.126;2023-06-14T10:00:57;147.30;;;10.50;;
5163;SDS011;2601;50.224;10.126;2023-06-14T10:03:25;148.30;;;10.77;;
5163;SDS011;2601;50.224;10.126;2023-06-14T10:05:53;147.27;;;10.80;;
5163;SDS011;2601;50.224;10.126;2023-06-14T10:08:26;147.87;;;10.47;;
5163;SDS011;2601;50.224;10.126;2023-06-14T10:10:55;146.87;;;10.30;;
5163;SDS011;2601;50.224;10.126;2023-06-14T10:13:21;148.07;;;10.30;;
5163;SDS011;2601;50.224;10.126;2023-06-14T10:21:05;147.00;;;9.60;;
5163;SDS011;2601;50.224;10.126;2023-06-14T10:23:42;147.23;;;10.20;;
5163;SDS011;2601;50.224;10.126;2023-06-14T10:26:17;147.00;;;9.73;;
5163;SDS011;2601;50.224;10.126;2023-06-14T10:29:00;147.50;;;10.00;;
5163;SDS011;2601;50.224;10.126;2023-06-14T10:31:44;147.67;;;10.87;;
5163;SDS011;2601;50.224;10.126;2023-06-14T10:34:12;147.43;;;10.13;;
5163;SDS011;2601;50.224;10.126;2023-06-14T10:36:50;147.47;;;9.77;;
5163;SDS011;2601;50.224;10.126;2023-06-14T10:39:25;146.77;;;9.60;;
5163;SDS011;2601;50.224;10.126;2023-06-14T10:41:54;146.93;;;10.03;;
5163;SDS011;2601;50.224;10.126;2023-06-14T10:46:46;148.47;;;10.37;;
5163;SDS011;2601;50.224;10.126;2023-06-14T10:49:12;147.70;;;10.43;;
5163;SDS011;2601;50.224;10.126;2023-06-14T10:51:44;146.57;;;9.80;;
5163;SDS011;2601;50.224;10.126;2023-06-14T10:54:14;147.00;;;9.63;;
5163;SDS011;2601;50.224;10.126;2023-06-14T10:56:47;147.57;;;10.50;;
5163;SDS011;2601;50.224;10.126;2023-06-14T10:59:17;146.97;;;10.13;;
5163;SDS011;2601;50.224;10.126;2023-06-14T11:10:36;146.23;;;9.37;;
5163;SDS011;2601;50.224;10.126;2023-06-14T11:13:03;147.60;;;10.80;;
5163;SDS011;2601;50.224;10.126;2023-06-14T11:15:33;147.07;;;10.13;;
5163;SDS011;2601;50.224;10.126;2023-06-14T11:18:03;146.50;;;10.13;;
5163;SDS011;2601;50.224;10.126;2023-06-14T11:20:31;146.93;;;9.50;;
5163;SDS011;2601;50.224;10.126;2023-06-14T11:22:58;146.17;;;10.20;;
5163;SDS011;2601;50.224;10.126;2023-06-14T11:25:25;148.20;;;9.80;;
5163;SDS011;2601;50.224;10.126;2023-06-14T11:27:51;152.10;;;12.03;;
5163;SDS011;2601;50.224;10.126;2023-06-14T11:30:17;146.70;;;10.80;;
5163;SDS011;2601;50.224;10.126;2023-06-14T11:32:46;148.00;;;10.30;;
5163;SDS011;2601;50.224;10.126;2023-06-14T11:35:12;149.60;;;11.07;;
5163;SDS011;2601;50.224;10.126;2023-06-14T11:37:39;147.37;;;10.20;;
5163;SDS011;2601;50.224;10.126;2023-06-14T11:40:07;148.00;;;9.97;;
5163;SDS011;2601;50.224;10.126;2023-06-14T11:42:34;149.37;;;10.13;;
5163;SDS011;2601;50.224;10.126;2023-06-14T11:45:01;147.93;;;10.30;;
5163;SDS011;2601;50.224;10.126;2023-06-14T11:47:34;147.57;;;10.10;;
5163;SDS011;2601;50.224;10.126;2023-06-14T11:50:01;148.60;;;10.60;;
5163;SDS011;2601;50.224;10.126;2023-06-14T11:52:27;146.37;;;10.10;;
5163;SDS011;2601;50.224;10.126;2023-06-14T11:54:53;147.90;;;11.00;;
5163;SDS011;2601;50.224;10.126;2023-06-14T11:57:19;146.87;;;9.93;;
5163;SDS011;2601;50.224;10.126;2023-06-14T11:59:45;148.23;;;10.87;;
5163;SDS011;2601;50.224;10.126;2023-06-14T12:02:14;146.77;;;10.00;;
5163;SDS011;2601;50.224;10.126;2023-06-14T12:04:41;147.13;;;9.87;;
5163;SDS011;2601;50.224;10.126;2023-06-14T12:07:14;147.27;;;10.20;;
5163;SDS011;2601;50.224;10.126;2023-06-14T12:09:42;147.50;;;10.17;;
5163;SDS011;2601;50.224;10.126;2023-06-14T12:12:34;147.93;;;10.23;;
5163;SDS011;2601;50.224;10.126;2023-06-14T12:15:02;147.00;;;10.50;;
5163;SDS011;2601;50.224;10.126;2023-06-14T12:17:33;146.37;;;9.73;;
5163;SDS011;2601;50.224;10.126;2023-06-14T12:20:04;147.23;;;10.63;;
5163;SDS011;2601;50.224;10.126;2023-06-14T12:22:33;146.93;;;10.03;;
5163;SDS011;2601;50.224;10.126;2023-06-14T12:24:59;146.73;;;10.60;;
5163;SDS011;2601;50.224;10.126;2023-06-14T12:27:25;147.10;;;9.80;;
5163;SDS011;2601;50.224;10.126;2023-06-14T12:30:03;146.83;;;9.40;;
5163;SDS011;2601;50.224;10.126;2023-06-14T12:32:29;147.33;;;10.27;;
5163;SDS011;2601;50.224;10.126;2023-06-14T12:34:55;147.07;;;9.63;;
5163;SDS011;2601;50.224;10.126;2023-06-14T12:37:21;146.77;;;10.07;;
5163;SDS011;2601;50.224;10.126;2023-06-14T12:39:46;148.00;;;10.47;;
5163;SDS011;2601;50.224;10.126;2023-06-14T12:42:12;146.63;;;10.20;;
5163;SDS011;2601;50.224;10.126;2023-06-14T12:44:39;146.80;;;10.10;;
5163;SDS011;2601;50.224;10.126;2023-06-14T12:47:06;146.80;;;9.80;;
5163;SDS011;2601;50.224;10.126;2023-06-14T12:49:32;147.63;;;10.40;;
5163;SDS011;2601;50.224;10.126;2023-06-14T12:51:58;147.67;;;10.47;;
5163;SDS011;2601;50.224;10.126;2023-06-14T12:54:24;157.83;;;10.23;;
5163;SDS011;2601;50.224;10.126;2023-06-14T12:56:51;147.20;;;10.40;;
5163;SDS011;2601;50.224;10.126;2023-06-14T12:59:17;147.10;;;10.60;;
5163;SDS011;2601;50.224;10.126;2023-06-14T13:01:43;146.80;;;9.30;;
5163;SDS011;2601;50.224;10.126;2023-06-14T13:04:09;146.87;;;10.40;;
5163;SDS011;2601;50.224;10.126;2023-06-14T13:06:35;146.90;;;9.40;;
5163;SDS011;2601;50.224;10.126;2023-06-14T13:09:01;146.83;;;10.20;;
5163;SDS011;2601;50.224;10.126;2023-06-14T13:11:26;147.47;;;10.20;;
5163;SDS011;2601;50.224;10.126;2023-06-14T13:13:52;148.57;;;10.27;;
5163;SDS011;2601;50.224;10.126;2023-06-14T13:16:17;147.07;;;10.20;;
5163;SDS011;2601;50.224;10.126;2023-06-14T13:18:43;150.50;;;10.50;;
5163;SDS011;2601;50.224;10.126;2023-06-14T13:21:09;147.47;;;10.03;;
5163;SDS011;2601;50.224;10.126;2023-06-14T13:23:34;147.30;;;9.67;;
5163;SDS011;2601;50.224;10.126;2023-06-14T13:26:00;147.83;;;10.60;;
5163;SDS011;2601;50.224;10.126;2023-06-14T13:28:25;148.07;;;10.70;;
5163;SDS011;2601;50.224;10.126;2023-06-14T13:30:51;147.37;;;10.57;;
5163;SDS011;2601;50.224;10.126;2023-06-14T13:33:16;147.43;;;10.43;;
5163;SDS011;2601;50.224;10.126;2023-06-14T13:35:42;147.10;;;10.20;;
5163;SDS011;2601;50.224;10.126;2023-06-14T13:38:09;146.97;;;10.40;;
5163;SDS011;2601;50.224;10.126;2023-06-14T13:40:35;147.10;;;9.67;;
5163;SDS011;2601;50.224;10.126;2023-06-14T13:43:01;150.33;;;9.10;;
5163;SDS011;2601;50.224;10.126;2023-06-14T13:45:27;146.30;;;9.33;;
5163;SDS011;2601;50.224;10.126;2023-06-14T13:47:53;147.63;;;9.77;;
5163;SDS011;2601;50.224;10.126;2023-06-14T13:50:19;147.27;;;9.73;;
5163;SDS011;2601;50.224;10.126;2023-06-14T13:52:45;146.67;;;10.00;;
5163;SDS011;2601;50.224;10.126;2023-06-14T13:55:11;153.57;;;10.47;;
5163;SDS011;2601;50.224;10.126;2023-06-14T13:57:36;147.37;;;9.60;;
5163;SDS011;2601;50.224;10.126;2023-06-14T14:00:02;147.27;;;10.40;;
5163;SDS011;2601;50.224;10.126;2023-06-14T14:02:28;147.57;;;10.20;;
5163;SDS011;2601;50.224;10.126;2023-06-14T14:04:54;147.37;;;10.17;;
5163;SDS011;2601;50.224;10.126;2023-06-14T14:07:20;148.03;;;10.10;;
5163;SDS011;2601;50.224;10.126;2023-06-14T14:09:47;147.17;;;9.80;;
5163;SDS011;2601;50.224;10.126;2023-06-14T14:12:13;146.37;;;9.80;;
5163;SDS011;2601;50.224;10.126;2023-06-14T14:14:39;147.53;;;10.40;;
5163;SDS011;2601;50.224;10.126;2023-06-14T14:17:05;146.50;;;10.10;;
5163;SDS011;2601;50.224;10.126;2023-06-14T14:19:31;146.53;;;9.83;;
5163;SDS011;2601;50.224;10.126;2023-06-14T14:21:57;152.30;;;11.57;;
5163;SDS011;2601;50.224;10.126;2023-06-14T14:24:23;146.80;;;9.90;;
5163;SDS011;2601;50.224;10.126;2023-06-14T14:26:48;148.07;;;11.13;;
5163;SDS011;2601;50.224;10.126;2023-06-14T14:29:14;146.20;;;9.47;;
5163;SDS011;2601;50.224;10.126;2023-06-14T14:31:40;148.93;;;10.10;;
5163;SDS011;2601;50.224;10.126;2023-06-14T14:34:06;147.03;;;10.60;;
5163;SDS011;2601;50.224;10.126;2023-06-14T14:36:32;146.27;;;9.90;;
5163;SDS011;2601;50.224;10.126;2023-06-14T14:39:02;147.53;;;10.23;;
5163;SDS011;2601;50.224;10.126;2023-06-14T14:41:29;148.80;;;10.30;;
5163;SDS011;2601;50.224;10.126;2023-06-14T14:43:54;146.43;;;10.53;;